createdAt,value
2022-07-27T00:01:15.732Z,97844.19
2022-07-27T00:03:45.396Z,97838.41
2022-07-27T00:06:13.734Z,97843.53
2022-07-27T00:08:41.302Z,97843.97
2022-07-27T00:11:10.344Z,97843.00
2022-07-27T00:13:38.924Z,97843.84
2022-07-27T00:16:07.561Z,97849.56
2022-07-27T00:18:35.131Z,97840.31
2022-07-27T00:21:02.332Z,97842.56
2022-07-27T00:23:29.634Z,97847.47
2022-07-27T00:25:57.262Z,97854.28
2022-07-27T00:28:24.510Z,97855.38
2022-07-27T00:30:51.784Z,97852.63
2022-07-27T00:33:19.249Z,97850.97
2022-07-27T00:35:46.696Z,97853.72
2022-07-27T00:38:14.125Z,97852.25
2022-07-27T00:40:41.746Z,97855.03
2022-07-27T00:43:09.033Z,97852.00
2022-07-27T00:45:36.401Z,97852.84
2022-07-27T00:48:04.299Z,97864.22
2022-07-27T00:50:31.814Z,97865.59
2022-07-27T00:52:59.638Z,97853.22
2022-07-27T00:55:27.723Z,97859.31
2022-07-27T00:57:59.314Z,97856.84
2022-07-27T01:00:28.527Z,97864.19
2022-07-27T01:02:57.496Z,97859.41
2022-07-27T01:05:35.964Z,97865.38
2022-07-27T01:08:07.886Z,97862.88
2022-07-27T01:10:36.166Z,97872.09
2022-07-27T01:13:03.708Z,97880.47
2022-07-27T01:15:36.818Z,97882.94
2022-07-27T01:18:04.829Z,97876.00
2022-07-27T01:20:33.838Z,97880.47
2022-07-27T01:23:01.077Z,97871.88
2022-07-27T01:25:28.330Z,97885.22
2022-07-27T01:27:55.723Z,97876.16
2022-07-27T01:30:30.502Z,97877.00
2022-07-27T01:33:03.561Z,97884.59
2022-07-27T01:35:30.937Z,97871.56
2022-07-27T01:37:58.707Z,97868.25
2022-07-27T01:40:26.190Z,97877.16
2022-07-27T01:42:53.567Z,97873.03
2022-07-27T01:45:21.983Z,97870.75
2022-07-27T01:47:49.589Z,97869.09
2022-07-27T01:50:16.975Z,97862.81
2022-07-27T01:52:44.506Z,97877.66
2022-07-27T01:55:12.340Z,97871.06
2022-07-27T01:57:40.269Z,97870.22
2022-07-27T02:00:12.107Z,97870.22
2022-07-27T02:02:41.295Z,97869.59
2022-07-27T02:05:12.221Z,97864.78
2022-07-27T02:07:41.543Z,97877.97
2022-07-27T02:10:10.297Z,97883.25
2022-07-27T02:12:38.734Z,97893.16
2022-07-27T02:15:19.564Z,97889.44
2022-07-27T02:17:49.293Z,97882.88
2022-07-27T02:20:21.389Z,97882.19
2022-07-27T02:22:50.073Z,97888.78
2022-07-27T02:25:19.594Z,97890.03
2022-07-27T02:27:47.920Z,97895.47
2022-07-27T02:30:17.885Z,97895.91
2022-07-27T02:32:45.458Z,97890.94
2022-07-27T02:35:19.912Z,97899.00
2022-07-27T02:37:49.115Z,97897.34
2022-07-27T02:40:18.185Z,97894.88
2022-07-27T02:42:47.331Z,97898.63
2022-07-27T02:45:16.320Z,97905.34
2022-07-27T02:47:44.900Z,97914.22
2022-07-27T02:50:12.753Z,97910.88
2022-07-27T02:52:41.161Z,97911.34
2022-07-27T02:55:10.618Z,97905.56
2022-07-27T02:57:41.285Z,97919.00
2022-07-27T03:00:14.423Z,97911.41
2022-07-27T03:02:42.030Z,97909.75
2022-07-27T03:05:11.029Z,97914.47
2022-07-27T03:07:38.845Z,97909.47
2022-07-27T03:10:07.178Z,97912.81
2022-07-27T03:12:34.874Z,97908.66
2022-07-27T03:15:02.293Z,97913.09
2022-07-27T03:17:29.663Z,97913.91
2022-07-27T03:19:57.159Z,97917.53
2022-07-27T03:22:24.472Z,97924.19
2022-07-27T03:24:51.793Z,97924.03
2022-07-27T03:27:19.271Z,97918.66
2022-07-27T03:29:46.627Z,97924.59
2022-07-27T03:32:14.032Z,97918.19
2022-07-27T03:34:41.484Z,97909.69
2022-07-27T03:37:08.845Z,97912.84
2022-07-27T03:39:36.564Z,97916.31
2022-07-27T03:42:04.583Z,97909.88
2022-07-27T03:44:32.057Z,97917.31
2022-07-27T03:46:59.652Z,97910.00
2022-07-27T03:49:27.354Z,97908.28
2022-07-27T03:51:54.686Z,97917.91
2022-07-27T03:54:22.130Z,97925.41
2022-07-27T03:56:49.636Z,97916.72
2022-07-27T03:59:17.047Z,97914.44
2022-07-27T04:01:44.466Z,97918.13
2022-07-27T04:04:12.138Z,97919.84
2022-07-27T04:06:39.520Z,97917.97
2022-07-27T04:09:08.655Z,97923.97
2022-07-27T04:11:37.840Z,97922.97
2022-07-27T04:14:16.940Z,97931.25
2022-07-27T04:16:44.588Z,97926.50
2022-07-27T04:19:12.145Z,97920.75
2022-07-27T04:21:39.719Z,97917.66
2022-07-27T04:24:07.837Z,97920.47
2022-07-27T04:26:35.181Z,97926.31
2022-07-27T04:29:02.878Z,97939.56
2022-07-27T04:31:30.900Z,97935.44
2022-07-27T04:33:58.449Z,97937.78
2022-07-27T04:36:25.831Z,97943.59
2022-07-27T04:38:53.375Z,97939.00
2022-07-27T04:41:21.196Z,97939.25
2022-07-27T04:43:48.578Z,97941.13
2022-07-27T04:46:16.581Z,97942.69
2022-07-27T04:48:49.090Z,97947.88
2022-07-27T04:51:18.472Z,97954.84
2022-07-27T04:53:52.783Z,97955.03
2022-07-27T04:56:27.538Z,97956.00
2022-07-27T04:58:56.183Z,97947.59
2022-07-27T05:01:23.856Z,97946.28
2022-07-27T05:03:52.552Z,97946.28
2022-07-27T05:06:20.353Z,97958.56
2022-07-27T05:08:47.651Z,97957.56
2022-07-27T05:11:15.495Z,97955.75
2022-07-27T05:13:42.855Z,97958.75
2022-07-27T05:16:11.375Z,97952.81
2022-07-27T05:18:40.181Z,97957.09
2022-07-27T05:21:09.755Z,97970.69
2022-07-27T05:23:37.140Z,97966.97
2022-07-27T05:26:05.119Z,97963.41
2022-07-27T05:28:32.505Z,97957.03
2022-07-27T05:30:59.977Z,97945.97
2022-07-27T05:33:27.635Z,97946.66
2022-07-27T05:35:57.260Z,97943.00
2022-07-27T05:38:24.467Z,97950.09
2022-07-27T05:40:53.336Z,97965.22
2022-07-27T05:43:20.675Z,97963.78
2022-07-27T05:45:48.174Z,97965.38
2022-07-27T05:48:16.045Z,97973.69
2022-07-27T05:50:43.896Z,97982.06
2022-07-27T05:53:11.236Z,97985.38
2022-07-27T05:55:38.726Z,97988.84
2022-07-27T05:58:06.392Z,97995.66
2022-07-27T06:00:34.398Z,97992.72
2022-07-27T06:03:01.992Z,97997.72
2022-07-27T06:05:29.413Z,98000.16
2022-07-27T06:07:59.457Z,97992.84
2022-07-27T06:10:32.525Z,97987.59
2022-07-27T06:13:01.415Z,97985.34
2022-07-27T06:15:28.962Z,97992.81
2022-07-27T06:17:56.647Z,98003.16
2022-07-27T06:20:25.446Z,98008.50
2022-07-27T06:22:57.432Z,98010.53
2022-07-27T06:25:34.050Z,98002.66
2022-07-27T06:28:06.704Z,98008.22
2022-07-27T06:30:34.144Z,98003.84
2022-07-27T06:33:06.721Z,98006.63
2022-07-27T06:35:37.763Z,98010.00
2022-07-27T06:38:05.676Z,98003.78
2022-07-27T06:40:32.940Z,98001.44
2022-07-27T06:43:00.713Z,98004.19
2022-07-27T06:45:28.173Z,97998.53
2022-07-27T06:47:55.523Z,98002.22
2022-07-27T06:50:23.691Z,98010.09
2022-07-27T06:52:51.011Z,98015.91
2022-07-27T06:55:18.381Z,98022.88
2022-07-27T06:57:46.644Z,98025.16
2022-07-27T07:00:15.327Z,98024.06
2022-07-27T07:03:01.119Z,98026.13
2022-07-27T07:05:29.431Z,98029.94
2022-07-27T07:07:57.534Z,98022.94
2022-07-27T07:10:26.224Z,98030.09
2022-07-27T07:12:56.295Z,98024.28
2022-07-27T07:15:26.907Z,98025.44
2022-07-27T07:17:54.748Z,98029.16
2022-07-27T07:20:22.957Z,98035.97
2022-07-27T07:22:50.987Z,98035.91
2022-07-27T07:25:18.594Z,98032.00
2022-07-27T07:27:45.910Z,98032.97
2022-07-27T07:30:13.554Z,98028.03
2022-07-27T07:32:41.091Z,98028.56
2022-07-27T07:35:09.286Z,98025.59
2022-07-27T07:37:36.527Z,98031.75
2022-07-27T07:40:32.565Z,98031.13
2022-07-27T07:42:56.785Z,98038.59
2022-07-27T07:45:25.210Z,98036.97
2022-07-27T07:47:54.107Z,98041.22
2022-07-27T07:50:22.414Z,98039.72
2022-07-27T07:52:52.386Z,98041.22
2022-07-27T07:55:21.896Z,98046.81
2022-07-27T07:57:50.682Z,98051.97
2022-07-27T08:00:19.638Z,98047.66
2022-07-27T08:02:54.419Z,98059.75
2022-07-27T08:05:22.796Z,98053.38
2022-07-27T08:07:50.695Z,98052.75
2022-07-27T08:10:21.811Z,98058.22
2022-07-27T08:12:54.604Z,98056.47
2022-07-27T08:15:34.808Z,98053.31
2022-07-27T08:18:05.697Z,98049.31
2022-07-27T08:20:34.341Z,98058.91
2022-07-27T08:23:02.307Z,98057.72
2022-07-27T08:25:30.197Z,98046.72
2022-07-27T08:27:58.796Z,98051.06
2022-07-27T08:30:27.223Z,98045.66
2022-07-27T08:33:01.736Z,98052.22
2022-07-27T08:35:31.243Z,98051.97
2022-07-27T08:38:00.641Z,98053.47
2022-07-27T08:40:39.605Z,98054.56
2022-07-27T08:43:09.799Z,98053.91
2022-07-27T08:45:38.655Z,98058.41
2022-07-27T08:48:06.581Z,98057.69
2022-07-27T08:50:35.441Z,98056.13
2022-07-27T08:53:12.525Z,98057.78
2022-07-27T08:55:44.227Z,98061.72
2022-07-27T08:58:13.775Z,98060.50
2022-07-27T09:00:45.930Z,98051.78
2022-07-27T09:03:19.564Z,98052.84
2022-07-27T09:05:56.515Z,98056.38
2022-07-27T09:08:31.118Z,98054.88
2022-07-27T09:11:00.462Z,98066.56
2022-07-27T09:13:33.420Z,98056.84
2022-07-27T09:16:23.501Z,98055.63
2022-07-27T09:19:10.653Z,98049.06
2022-07-27T09:21:38.531Z,98049.31
2022-07-27T09:24:29.744Z,98050.50
2022-07-27T09:27:05.958Z,98047.88
2022-07-27T09:29:37.242Z,98043.03
2022-07-27T09:32:15.828Z,98053.66
2022-07-27T09:34:43.872Z,98050.56
2022-07-27T09:37:12.536Z,98040.72
2022-07-27T09:39:40.052Z,98033.31
2022-07-27T09:43:02.774Z,98036.63
2022-07-27T09:45:04.475Z,98035.41
2022-07-27T09:47:34.578Z,98036.59
2022-07-27T09:50:29.039Z,98039.13
2022-07-27T09:53:41.740Z,98038.66
2022-07-27T09:56:15.057Z,98043.75
2022-07-27T09:58:50.363Z,98037.63
2022-07-27T10:01:29.335Z,98039.44
2022-07-27T10:04:03.219Z,98039.53
2022-07-27T10:06:42.727Z,98039.72
2022-07-27T10:09:22.880Z,98039.00
2022-07-27T10:11:51.228Z,98046.69
2022-07-27T10:14:18.542Z,98045.16
2022-07-27T10:16:50.988Z,98039.22
2022-07-27T10:19:47.695Z,98046.00
2022-07-27T10:22:15.367Z,98044.19
2022-07-27T10:24:43.765Z,98042.19
2022-07-27T10:27:30.928Z,98058.16
2022-07-27T10:29:59.198Z,98050.47
2022-07-27T10:32:33.677Z,98056.13
2022-07-27T10:35:02.126Z,98047.84
2022-07-27T10:37:34.900Z,98047.38
2022-07-27T10:40:26.336Z,98055.66
2022-07-27T10:43:18.616Z,98058.66
2022-07-27T10:46:01.413Z,98056.72
2022-07-27T10:48:47.903Z,98052.00
2022-07-27T10:51:17.540Z,98049.28
2022-07-27T10:56:48.180Z,98049.75
2022-07-27T10:59:51.241Z,98041.97
2022-07-27T11:02:41.708Z,98050.47
2022-07-27T11:05:32.741Z,98056.56
2022-07-27T11:10:48.887Z,98057.75
2022-07-27T11:13:22.175Z,98055.75
2022-07-27T11:16:23.326Z,98044.41
2022-07-27T11:19:05.145Z,98048.53
2022-07-27T11:21:38.581Z,98042.28
2022-07-27T11:24:19.682Z,98046.88
2022-07-27T11:26:50.418Z,98039.81
2022-07-27T11:29:22.467Z,98036.53
2022-07-27T11:31:57.025Z,98035.47
2022-07-27T11:34:35.066Z,98038.16
2022-07-27T11:37:13.870Z,98032.91
2022-07-27T11:39:59.903Z,98036.13
2022-07-27T11:42:39.270Z,98032.25
2022-07-27T11:45:07.851Z,98038.38
2022-07-27T11:47:37.069Z,98036.88
2022-07-27T11:50:08.515Z,98030.31
2022-07-27T11:52:36.409Z,98027.59
2022-07-27T11:55:04.154Z,98026.78
2022-07-27T11:57:33.922Z,98030.34
2022-07-27T12:00:02.287Z,98019.44
2022-07-27T12:02:29.707Z,98008.53
2022-07-27T12:05:02.556Z,98014.22
2022-07-27T12:07:33.818Z,98003.66
2022-07-27T12:10:09.704Z,98001.97
2022-07-27T12:12:38.285Z,97994.84
2022-07-27T12:18:06.799Z,97980.19
2022-07-27T12:20:36.723Z,97983.47
2022-07-27T12:23:07.487Z,97975.34
2022-07-27T12:25:35.774Z,97973.72
2022-07-27T12:28:08.556Z,97967.72
2022-07-27T12:30:44.758Z,97967.47
2022-07-27T12:33:38.151Z,97970.50
2022-07-27T12:36:08.555Z,97969.09
2022-07-27T12:38:46.062Z,97971.56
2022-07-27T12:41:32.693Z,97968.28
2022-07-27T12:44:15.819Z,97967.16
2022-07-27T12:47:02.554Z,97966.28
2022-07-27T12:49:40.862Z,97967.16
2022-07-27T12:52:11.237Z,97968.19
2022-07-27T12:54:39.057Z,97963.09
2022-07-27T12:57:06.590Z,97966.66
2022-07-27T12:59:34.050Z,97965.78
2022-07-27T13:02:01.369Z,97971.31
2022-07-27T13:04:28.691Z,97965.19
2022-07-27T13:06:56.165Z,97971.66
2022-07-27T13:09:23.509Z,97966.72
2022-07-27T13:11:50.744Z,97962.88
2022-07-27T13:14:18.210Z,97959.22
2022-07-27T13:16:45.496Z,97954.09
2022-07-27T13:19:15.594Z,97948.63
2022-07-27T13:21:43.631Z,97947.59
2022-07-27T13:24:11.553Z,97948.13
2022-07-27T13:26:39.565Z,97942.44
2022-07-27T13:29:07.280Z,97942.66
2022-07-27T13:31:34.736Z,97942.63
2022-07-27T13:34:02.103Z,97952.03
2022-07-27T13:36:29.700Z,97942.72
2022-07-27T13:38:56.953Z,97948.56
2022-07-27T13:41:24.267Z,97945.09
2022-07-27T13:43:51.834Z,97948.56
2022-07-27T13:46:19.214Z,97942.94
2022-07-27T13:48:46.710Z,97941.47
2022-07-27T13:51:14.299Z,97941.47
2022-07-27T13:53:41.553Z,97941.31
2022-07-27T13:56:09.319Z,97943.25
2022-07-27T13:58:41.039Z,97943.66
2022-07-27T14:01:09.009Z,97936.97
2022-07-27T14:03:36.924Z,97928.56
2022-07-27T14:06:04.577Z,97927.69
2022-07-27T14:08:34.037Z,97929.50
2022-07-27T14:11:01.323Z,97932.22
2022-07-27T14:13:32.849Z,97934.03
2022-07-27T14:16:01.682Z,97934.13
2022-07-27T14:18:32.396Z,97926.38
2022-07-27T14:21:04.091Z,97924.84
2022-07-27T14:23:33.415Z,97928.88
2022-07-27T14:26:03.620Z,97930.97
2022-07-27T14:28:31.873Z,97928.69
2022-07-27T14:31:00.859Z,97920.38
2022-07-27T14:33:33.299Z,97922.28
2022-07-27T14:36:07.435Z,97921.72
2022-07-27T14:38:37.099Z,97923.56
2022-07-27T14:41:06.194Z,97921.94
2022-07-27T14:43:33.813Z,97925.22
2022-07-27T14:46:01.716Z,97922.09
2022-07-27T14:48:48.927Z,97914.94
2022-07-27T14:51:16.776Z,97905.56
2022-07-27T14:53:44.133Z,97907.09
2022-07-27T14:56:11.519Z,97910.72
2022-07-27T14:58:42.215Z,97911.16
2022-07-27T15:01:09.979Z,97901.63
2022-07-27T15:03:37.400Z,97913.66
2022-07-27T15:06:05.434Z,97912.03
2022-07-27T15:08:32.926Z,97909.94
2022-07-27T15:11:00.295Z,97910.19
2022-07-27T15:13:27.936Z,97910.78
2022-07-27T15:15:57.430Z,97899.13
2022-07-27T15:18:24.894Z,97899.75
2022-07-27T15:20:52.441Z,97890.03
2022-07-27T15:23:19.764Z,97891.53
2022-07-27T15:25:47.351Z,97887.63
2022-07-27T15:28:15.599Z,97887.09
2022-07-27T15:30:42.914Z,97889.22
2022-07-27T15:33:10.372Z,97893.56
2022-07-27T15:35:38.047Z,97891.53
2022-07-27T15:38:05.499Z,97890.56
2022-07-27T15:40:39.119Z,97894.41
2022-07-27T15:43:13.087Z,97906.78
2022-07-27T15:45:43.104Z,97902.34
2022-07-27T15:48:12.745Z,97897.91
2022-07-27T15:50:43.732Z,97905.59
2022-07-27T15:53:12.104Z,97914.38
2022-07-27T15:55:39.860Z,97908.22
2022-07-27T15:58:07.775Z,97907.94
2022-07-27T16:00:40.570Z,97913.09
2022-07-27T16:03:10.653Z,97896.31
2022-07-27T16:05:40.623Z,97898.53
2022-07-27T16:08:10.025Z,97898.44
2022-07-27T16:10:39.456Z,97905.22
2022-07-27T16:13:08.946Z,97917.19
2022-07-27T16:15:56.146Z,97910.53
2022-07-27T16:18:23.771Z,97905.06
2022-07-27T16:20:52.536Z,97908.22
2022-07-27T16:23:22.286Z,97900.91
2022-07-27T16:26:04.402Z,97904.91
2022-07-27T16:28:36.002Z,97890.88
2022-07-27T16:31:05.773Z,97896.69
2022-07-27T16:33:44.635Z,97893.84
2022-07-27T16:36:12.930Z,97887.81
2022-07-27T16:38:49.715Z,97898.13
2022-07-27T16:41:21.074Z,97903.06
2022-07-27T16:43:49.637Z,97905.06
2022-07-27T16:46:17.353Z,97902.00
2022-07-27T16:48:45.620Z,97906.22
2022-07-27T16:51:15.067Z,97899.34
2022-07-27T16:53:46.288Z,97904.16
2022-07-27T16:56:14.702Z,97900.56
2022-07-27T16:58:43.504Z,97905.88
2022-07-27T17:01:22.039Z,97906.34
2022-07-27T17:03:57.855Z,97907.09
2022-07-27T17:06:26.704Z,97912.06
2022-07-27T17:08:54.325Z,97915.50
2022-07-27T17:11:22.561Z,97916.56
2022-07-27T17:13:58.904Z,97917.03
2022-07-27T17:16:28.894Z,97908.56
2022-07-27T17:18:56.909Z,97917.06
2022-07-27T17:21:24.478Z,97917.13
2022-07-27T17:23:52.008Z,97927.03
2022-07-27T17:26:19.759Z,97924.81
2022-07-27T17:28:50.162Z,97935.09
2022-07-27T17:31:18.950Z,97932.22
2022-07-27T17:33:46.297Z,97946.84
2022-07-27T17:36:15.353Z,97949.13
2022-07-27T17:38:44.934Z,97944.81
2022-07-27T17:41:14.598Z,97946.81
2022-07-27T17:43:42.569Z,97939.41
2022-07-27T17:46:12.753Z,97933.22
2022-07-27T17:48:41.238Z,97946.34
2022-07-27T17:51:10.648Z,97943.84
2022-07-27T17:53:39.073Z,97940.16
2022-07-27T17:56:08.429Z,97941.75
2022-07-27T17:58:35.947Z,97950.59
2022-07-27T18:01:05.465Z,97950.31
2022-07-27T18:03:34.990Z,97952.94
2022-07-27T18:06:02.872Z,97956.63
2022-07-27T18:08:30.369Z,97956.59
2022-07-27T18:10:57.690Z,97962.34
2022-07-27T18:13:39.232Z,97968.03
2022-07-27T18:16:13.327Z,97966.56
2022-07-27T18:18:42.307Z,97965.69
2022-07-27T18:21:11.131Z,97963.63
2022-07-27T18:23:38.803Z,97956.78
2022-07-27T18:26:06.993Z,97959.22
2022-07-27T18:28:39.318Z,97955.91
2022-07-27T18:31:08.334Z,97953.16
2022-07-27T18:33:37.026Z,97957.25
2022-07-27T18:36:06.483Z,97962.13
2022-07-27T18:38:33.836Z,97965.97
2022-07-27T18:41:01.431Z,97973.34
2022-07-27T18:43:28.652Z,97974.38
2022-07-27T18:45:56.324Z,97983.97
2022-07-27T18:48:23.763Z,97988.66
2022-07-27T18:50:53.590Z,97994.81
2022-07-27T18:53:21.093Z,97996.66
2022-07-27T18:55:52.750Z,97996.66
2022-07-27T18:58:23.065Z,98004.88
2022-07-27T19:00:50.950Z,98000.94
2022-07-27T19:03:19.747Z,98002.53
2022-07-27T19:05:49.489Z,98001.25
2022-07-27T19:08:21.792Z,98007.34
2022-07-27T19:10:49.202Z,98005.06
2022-07-27T19:13:16.834Z,98015.91
2022-07-27T19:15:45.519Z,98016.09
2022-07-27T19:18:12.976Z,98017.94
2022-07-27T19:20:41.512Z,98019.34
2022-07-27T19:23:09.087Z,98021.53
2022-07-27T19:25:36.423Z,98034.59
2022-07-27T19:28:04.738Z,98040.13
2022-07-27T19:30:32.434Z,98035.16
2022-07-27T19:33:00.811Z,98036.16
2022-07-27T19:35:28.468Z,98040.28
2022-07-27T19:37:56.189Z,98052.78
2022-07-27T19:43:11.264Z,98046.59
2022-07-27T19:45:38.609Z,98057.59
2022-07-27T19:48:06.841Z,98051.44
2022-07-27T19:50:35.022Z,98055.94
2022-07-27T19:53:03.326Z,98055.31
2022-07-27T19:55:30.827Z,98058.19
2022-07-27T19:57:58.515Z,98059.19
2022-07-27T20:00:26.001Z,98063.84
2022-07-27T20:02:53.489Z,98063.22
2022-07-27T20:05:21.781Z,98067.72
2022-07-27T20:07:49.041Z,98070.41
2022-07-27T20:10:16.706Z,98073.69
2022-07-27T20:12:44.252Z,98075.53
2022-07-27T20:15:11.669Z,98077.56
2022-07-27T20:17:40.424Z,98088.22
2022-07-27T20:20:10.838Z,98089.63
2022-07-27T20:22:41.206Z,98089.78
2022-07-27T20:25:14.929Z,98099.81
2022-07-27T20:27:42.883Z,98107.34
2022-07-27T20:30:11.816Z,98107.06
2022-07-27T20:32:39.126Z,98109.28
2022-07-27T20:35:07.287Z,98115.81
2022-07-27T20:37:34.921Z,98119.28
2022-07-27T20:40:03.178Z,98121.78
2022-07-27T20:42:30.893Z,98122.69
2022-07-27T20:44:58.425Z,98120.75
2022-07-27T20:47:28.698Z,98123.22
2022-07-27T20:49:58.656Z,98124.91
2022-07-27T20:52:25.848Z,98135.56
2022-07-27T20:54:55.928Z,98131.22
2022-07-27T20:57:23.282Z,98134.25
2022-07-27T20:59:50.514Z,98142.41
2022-07-27T21:02:17.889Z,98145.28
2022-07-27T21:04:45.460Z,98138.63
2022-07-27T21:07:12.880Z,98135.56
2022-07-27T21:09:40.284Z,98127.75
2022-07-27T21:12:08.099Z,98127.28
2022-07-27T21:14:35.337Z,98123.03
2022-07-27T21:17:02.692Z,98125.44
2022-07-27T21:19:30.287Z,98129.81
2022-07-27T21:21:57.525Z,98133.66
2022-07-27T21:24:26.229Z,98138.34
2022-07-27T21:26:54.175Z,98143.66
2022-07-27T21:29:26.087Z,98136.66
2022-07-27T21:31:53.652Z,98144.81
2022-07-27T21:34:21.700Z,98149.69
2022-07-27T21:36:49.909Z,98153.25
2022-07-27T21:39:18.212Z,98155.06
2022-07-27T21:41:46.014Z,98150.75
2022-07-27T21:44:13.808Z,98156.09
2022-07-27T21:46:41.440Z,98152.28
2022-07-27T21:49:10.449Z,98151.47
2022-07-27T21:51:37.823Z,98158.78
2022-07-27T21:54:05.699Z,98162.94
2022-07-27T21:56:41.899Z,98153.47
2022-07-27T21:59:10.505Z,98163.16
2022-07-27T22:01:38.058Z,98166.50
2022-07-27T22:04:06.378Z,98155.25
2022-07-27T22:06:33.788Z,98163.22
2022-07-27T22:09:01.256Z,98159.78
2022-07-27T22:11:28.696Z,98165.91
2022-07-27T22:13:56.060Z,98166.94
2022-07-27T22:16:23.803Z,98165.44
2022-07-27T22:18:51.330Z,98163.31
2022-07-27T22:21:18.699Z,98169.47
2022-07-27T22:23:49.157Z,98176.59
2022-07-27T22:26:17.559Z,98185.56
2022-07-27T22:28:49.930Z,98177.44
2022-07-27T22:31:22.614Z,98181.59
2022-07-27T22:33:51.124Z,98186.41
2022-07-27T22:36:19.105Z,98179.59
2022-07-27T22:38:46.507Z,98184.28
2022-07-27T22:41:14.147Z,98185.09
2022-07-27T22:43:41.848Z,98187.75
2022-07-27T22:46:10.168Z,98187.13
2022-07-27T22:48:38.090Z,98192.25
2022-07-27T22:51:05.606Z,98195.91
2022-07-27T22:53:32.965Z,98205.53
2022-07-27T22:56:00.543Z,98194.25
2022-07-27T22:58:28.203Z,98207.56
2022-07-27T23:00:59.346Z,98206.22
2022-07-27T23:03:27.485Z,98212.53
2022-07-27T23:05:54.973Z,98215.88
2022-07-27T23:08:23.152Z,98214.41
2022-07-27T23:10:50.443Z,98215.22
2022-07-27T23:13:23.011Z,98212.94
2022-07-27T23:15:50.655Z,98207.97
2022-07-27T23:18:18.341Z,98208.63
2022-07-27T23:20:45.874Z,98203.28
2022-07-27T23:23:16.302Z,98203.28
2022-07-27T23:25:47.719Z,98206.44
2022-07-27T23:28:16.230Z,98213.59
2022-07-27T23:30:44.158Z,98204.63
2022-07-27T23:33:11.445Z,98205.63
2022-07-27T23:35:39.010Z,98207.81
2022-07-27T23:38:06.645Z,98206.97
2022-07-27T23:40:34.111Z,98206.34
2022-07-27T23:43:02.436Z,98205.47
2022-07-27T23:45:29.659Z,98213.78
2022-07-27T23:47:56.925Z,98211.97
2022-07-27T23:50:24.426Z,98216.97
2022-07-27T23:52:52.132Z,98209.63
2022-07-27T23:55:19.378Z,98215.59
2022-07-27T23:57:47.218Z,98218.91
